Главная страница
METAR-TAF:

METAR-TAF

Аэропорты :

Butler, Пенсильвания, США

широта: 40-47N, долгота: 079-57W, высота над уровнем моря: 380 м

Текущие метеонаблюдения

Эта сводка был подготовлена 41 минут назад, в 16:07 UTC
Ветер 8 Узел от западный
Температура -1°C
Влажность 86%
Давление 1021 hPa
Видимость: 16.1 км
небольшая облачность на высоте 1700 фута
Рассеянная облачность на высоте 2300 фута
Сплошная облачность на высоте 3200 фута

METAR: KBTP 161607Z AUTO 26008KT 10SM FEW017 BKN023 OVC032 M01/M03 A3015 RMK AO2 FZRANO

Время: 11:48 (16:48 UTC)


TAF: отсутствует

Метеонаблюдения и прогнозы для более 4000 аэропортов (сводки METAR и TAF).

Имеющиеся станции представлены на карте желтыми и красными точками.

Чтобы увидеть название станции, наведите на нее мышь.

Затем щелкните, чтобы увидеть метеонаблюдения и метеопрогнозы.

Управление картой: чтобы увеличить масштаб, щелкните зеленые кнопки с черным крестиком; чтобы уменьшить масштаб, щелкните зеленую кнопку с тире; для просмотра соседних карт щелкайте зеленые стрелки.


METAR-TAF: